createdAt,value
2017-09-11T00:00:27.979Z,966.5
2017-09-11T00:01:30.132Z,966.4
2017-09-11T00:02:32.600Z,966.3
2017-09-11T00:03:34.701Z,966.4
2017-09-11T00:04:37.099Z,966.3
2017-09-11T00:05:39.237Z,966.2
2017-09-11T00:06:41.322Z,966.2
2017-09-11T00:07:43.443Z,966.3
2017-09-11T00:08:45.656Z,966.2
2017-09-11T00:09:48.148Z,966.2
2017-09-11T00:10:50.260Z,966.3
2017-09-11T00:11:52.361Z,966.4
2017-09-11T00:12:54.511Z,966.3
2017-09-11T00:13:56.655Z,966.4
2017-09-11T00:14:59.038Z,966.4
2017-09-11T00:16:01.208Z,966.4
2017-09-11T00:17:03.383Z,966.3
2017-09-11T00:18:05.524Z,966.4
2017-09-11T00:19:07.860Z,966.2
2017-09-11T00:20:10.299Z,966.2
2017-09-11T00:21:12.415Z,966.3
2017-09-11T00:22:14.490Z,966.3
2017-09-11T00:23:16.592Z,966.2
2017-09-11T00:24:18.691Z,966.2
2017-09-11T00:25:21.113Z,966.2
2017-09-11T00:26:23.228Z,966.3
2017-09-11T00:27:25.285Z,966.3
2017-09-11T00:28:27.390Z,966.2
2017-09-11T00:29:29.557Z,966.2
2017-09-11T00:30:34.418Z,966.2
2017-09-11T00:31:36.612Z,966.2
2017-09-11T00:32:38.724Z,966.3
2017-09-11T00:33:40.909Z,966.1
2017-09-11T00:34:43.043Z,966.1
2017-09-11T00:35:45.453Z,966.1
2017-09-11T00:36:47.606Z,966.1
2017-09-11T00:37:49.727Z,966.1
2017-09-11T00:38:51.843Z,966
2017-09-11T00:39:54.273Z,966.1
2017-09-11T00:40:56.721Z,966.1
2017-09-11T00:41:58.829Z,966
2017-09-11T00:43:03.503Z,966.1
2017-09-11T00:44:06.219Z,966.1
2017-09-11T00:45:09.321Z,966
2017-09-11T00:46:12.247Z,966
2017-09-11T00:47:14.379Z,966
2017-09-11T00:48:16.573Z,966
2017-09-11T00:49:18.719Z,966
2017-09-11T00:50:21.051Z,966
2017-09-11T00:51:26.008Z,965.9
2017-09-11T00:52:28.128Z,965.9
2017-09-11T00:53:30.376Z,965.9
2017-09-11T00:54:32.488Z,966
2017-09-11T00:55:34.548Z,966
2017-09-11T00:56:36.986Z,965.9
2017-09-11T00:57:39.151Z,965.9
2017-09-11T00:58:41.317Z,965.9
2017-09-11T00:59:43.941Z,966
2017-09-11T01:00:46.034Z,965.9
2017-09-11T01:01:48.562Z,965.9
2017-09-11T01:02:50.725Z,965.9
2017-09-11T01:03:52.912Z,965.9
2017-09-11T01:04:55.127Z,965.9
2017-09-11T01:05:57.340Z,966
2017-09-11T01:06:59.778Z,965.9
2017-09-11T01:08:01.946Z,965.9
2017-09-11T01:09:04.160Z,966
2017-09-11T01:10:06.388Z,965.9
2017-09-11T01:11:08.465Z,965.9
2017-09-11T01:12:11.168Z,965.9
2017-09-11T01:13:13.285Z,965.8
2017-09-11T01:14:15.452Z,965.8
2017-09-11T01:15:17.594Z,965.8
2017-09-11T01:16:19.733Z,965.8
2017-09-11T01:17:22.226Z,965.8
2017-09-11T01:18:24.307Z,965.7
2017-09-11T01:19:26.422Z,965.7
2017-09-11T01:20:28.753Z,965.9
2017-09-11T01:21:31.002Z,965.9
2017-09-11T01:22:33.418Z,965.8
2017-09-11T01:23:35.502Z,965.8
2017-09-11T01:24:37.580Z,965.8
2017-09-11T01:25:39.687Z,965.7
2017-09-11T01:26:42.073Z,965.7
2017-09-11T01:27:44.481Z,965.7
2017-09-11T01:28:46.585Z,965.7
2017-09-11T01:29:48.644Z,965.8
2017-09-11T01:30:50.707Z,965.7
2017-09-11T01:31:54.035Z,965.7
2017-09-11T01:32:56.424Z,965.7
2017-09-11T01:33:58.615Z,965.7
2017-09-11T01:35:00.736Z,965.6
2017-09-11T01:36:02.817Z,965.6
2017-09-11T01:37:04.936Z,965.6
2017-09-11T01:38:07.612Z,965.5
2017-09-11T01:39:09.674Z,965.5
2017-09-11T01:40:11.809Z,965.5
2017-09-11T01:41:14.108Z,965.5
2017-09-11T01:42:16.328Z,965.4
2017-09-11T01:43:19.381Z,965.6
2017-09-11T01:44:21.542Z,965.5
2017-09-11T01:45:23.631Z,965.5
2017-09-11T01:46:25.828Z,965.4
2017-09-11T01:47:27.937Z,965.4
2017-09-11T01:48:30.672Z,965.3
2017-09-11T01:49:34.070Z,965.3
2017-09-11T01:50:36.283Z,965.4
2017-09-11T01:51:38.451Z,965.4
2017-09-11T01:52:41.574Z,965.4
2017-09-11T01:53:43.953Z,965.3
2017-09-11T01:54:46.024Z,965.4
2017-09-11T01:55:48.129Z,965.3
2017-09-11T01:56:50.296Z,965.3
2017-09-11T01:57:53.591Z,965.3
2017-09-11T01:58:56.030Z,965.3
2017-09-11T01:59:58.159Z,965.3
2017-09-11T02:01:00.302Z,965.3
2017-09-11T02:02:02.537Z,965.3
2017-09-11T02:03:04.834Z,965.3
2017-09-11T02:04:07.428Z,965.3
2017-09-11T02:05:09.598Z,965.3
2017-09-11T02:06:11.756Z,965.2
2017-09-11T02:07:13.895Z,965.2
2017-09-11T02:08:16.008Z,965.2
2017-09-11T02:09:18.533Z,965.2
2017-09-11T02:10:20.641Z,965.1
2017-09-11T02:11:22.867Z,965.1
2017-09-11T02:12:25.187Z,965.1
2017-09-11T02:13:27.361Z,965.1
2017-09-11T02:14:29.965Z,965.1
2017-09-11T02:15:32.069Z,965.1
2017-09-11T02:16:34.162Z,965.1
2017-09-11T02:17:36.270Z,965
2017-09-11T02:18:38.354Z,965
2017-09-11T02:19:40.759Z,965.2
2017-09-11T02:20:42.814Z,965
2017-09-11T02:21:44.896Z,965
2017-09-11T02:22:46.980Z,964.9
2017-09-11T02:23:49.130Z,965
2017-09-11T02:24:51.772Z,964.9
2017-09-11T02:25:53.849Z,964.9
2017-09-11T02:26:58.133Z,964.9
2017-09-11T02:28:00.252Z,965
2017-09-11T02:29:02.397Z,964.9
2017-09-11T02:30:04.848Z,964.9
2017-09-11T02:31:07.035Z,964.9
2017-09-11T02:32:09.195Z,964.9
2017-09-11T02:33:11.356Z,964.9
2017-09-11T02:34:13.772Z,964.9
2017-09-11T02:35:17.955Z,964.9
2017-09-11T02:36:20.081Z,964.9
2017-09-11T02:37:22.203Z,964.7
2017-09-11T02:38:24.377Z,964.9
2017-09-11T02:39:26.600Z,964.8
2017-09-11T02:40:29.021Z,964.8
2017-09-11T02:41:31.281Z,964.8
2017-09-11T02:42:33.456Z,964.8
2017-09-11T02:43:35.638Z,964.8
2017-09-11T02:44:39.939Z,964.8
2017-09-11T02:45:42.423Z,964.7
2017-09-11T02:46:44.519Z,964.8
2017-09-11T02:47:46.576Z,964.6
2017-09-11T02:48:48.747Z,964.7
2017-09-11T02:49:50.960Z,964.7
2017-09-11T02:50:53.520Z,964.5
2017-09-11T02:51:55.643Z,964.7
2017-09-11T02:52:57.756Z,964.7
2017-09-11T02:53:59.993Z,964.5
2017-09-11T02:55:02.193Z,964.5
2017-09-11T02:56:04.763Z,964.4
2017-09-11T02:57:06.858Z,964.5
2017-09-11T02:58:08.989Z,964.4
2017-09-11T02:59:11.184Z,964.4
2017-09-11T03:00:13.346Z,964.5
2017-09-11T03:01:15.743Z,964.4
2017-09-11T03:02:18.005Z,964.5
2017-09-11T03:03:20.471Z,964.4
2017-09-11T03:04:23.740Z,964.4
2017-09-11T03:05:25.837Z,964.2
2017-09-11T03:06:28.244Z,964.3
2017-09-11T03:07:30.345Z,964.3
2017-09-11T03:08:32.432Z,964.2
2017-09-11T03:09:34.563Z,964.2
2017-09-11T03:10:38.721Z,964.2
2017-09-11T03:11:41.371Z,964.3
2017-09-11T03:12:43.512Z,964.3
2017-09-11T03:13:45.662Z,964.3
2017-09-11T03:14:47.767Z,964.1
2017-09-11T03:15:49.899Z,964.1
2017-09-11T03:16:52.336Z,964.2
2017-09-11T03:17:54.742Z,964.1
2017-09-11T03:18:56.936Z,964.2
2017-09-11T03:19:59.017Z,964
2017-09-11T03:21:01.130Z,964.1
2017-09-11T03:22:03.905Z,964.1
2017-09-11T03:23:06.031Z,964.2
2017-09-11T03:24:08.124Z,964.1
2017-09-11T03:25:10.258Z,964.1
2017-09-11T03:26:12.364Z,964.1
2017-09-11T03:27:15.372Z,964.1
2017-09-11T03:28:17.857Z,964.1
2017-09-11T03:29:20.017Z,964.1
2017-09-11T03:30:22.143Z,964
2017-09-11T03:31:24.330Z,964
2017-09-11T03:32:26.850Z,964.1
2017-09-11T03:33:28.999Z,964
2017-09-11T03:34:31.287Z,964
2017-09-11T03:35:33.386Z,963.9
2017-09-11T03:36:35.864Z,963.9
2017-09-11T03:37:38.308Z,963.9
2017-09-11T03:38:40.716Z,963.9
2017-09-11T03:39:42.838Z,963.9
2017-09-11T03:40:44.874Z,963.9
2017-09-11T03:41:47.060Z,964
2017-09-11T03:42:49.564Z,963.8
2017-09-11T03:43:51.690Z,963.9
2017-09-11T03:44:54.000Z,963.9
2017-09-11T03:45:56.067Z,963.8
2017-09-11T03:46:58.116Z,963.8
2017-09-11T03:48:00.592Z,963.8
2017-09-11T03:49:02.683Z,963.7
2017-09-11T03:50:04.774Z,963.8
2017-09-11T03:51:07.471Z,963.9
2017-09-11T03:52:09.597Z,963.7
2017-09-11T03:53:12.076Z,963.7
2017-09-11T03:54:14.192Z,963.7
2017-09-11T03:55:16.354Z,963.7
2017-09-11T03:56:18.638Z,963.7
2017-09-11T03:57:20.845Z,963.7
2017-09-11T03:58:23.387Z,963.7
2017-09-11T03:59:25.564Z,963.7
2017-09-11T04:00:27.640Z,963.7
2017-09-11T04:01:29.817Z,963.8
2017-09-11T04:02:32.018Z,963.7
2017-09-11T04:03:34.437Z,963.7
2017-09-11T04:04:36.644Z,963.6
2017-09-11T04:05:38.803Z,963.6
2017-09-11T04:06:41.099Z,963.6
2017-09-11T04:07:43.306Z,963.6
2017-09-11T04:08:45.784Z,963.6
2017-09-11T04:09:47.884Z,963.6
2017-09-11T04:10:50.136Z,963.6
2017-09-11T04:11:52.223Z,963.5
2017-09-11T04:12:54.286Z,963.5
2017-09-11T04:13:56.688Z,963.6
2017-09-11T04:14:58.769Z,963.5
2017-09-11T04:16:00.889Z,963.5
2017-09-11T04:17:04.255Z,963.5
2017-09-11T04:18:06.469Z,963.5
2017-09-11T04:19:08.915Z,963.6
2017-09-11T04:20:11.169Z,963.6
2017-09-11T04:21:13.353Z,963.5
2017-09-11T04:22:15.580Z,963.6
2017-09-11T04:23:17.715Z,963.6
2017-09-11T04:24:20.207Z,963.6
2017-09-11T04:25:22.360Z,963.6
2017-09-11T04:26:24.551Z,963.7
2017-09-11T04:27:26.682Z,963.6
2017-09-11T04:28:29.094Z,963.5
2017-09-11T04:29:31.602Z,963.5
2017-09-11T04:30:33.765Z,963.6
2017-09-11T04:31:35.873Z,963.6
2017-09-11T04:32:38.680Z,963.7
2017-09-11T04:33:40.852Z,963.7
2017-09-11T04:34:43.375Z,963.6
2017-09-11T04:35:45.505Z,963.7
2017-09-11T04:36:47.731Z,963.7
2017-09-11T04:37:49.872Z,963.6
2017-09-11T04:38:52.396Z,963.6
2017-09-11T04:39:54.847Z,963.6
2017-09-11T04:40:57.026Z,963.6
2017-09-11T04:41:59.116Z,963.7
2017-09-11T04:43:01.201Z,963.6
2017-09-11T04:44:03.326Z,963.7
2017-09-11T04:45:05.784Z,963.6
2017-09-11T04:46:07.903Z,963.6
2017-09-11T04:47:10.090Z,963.6
2017-09-11T04:48:12.177Z,963.6
2017-09-11T04:49:14.461Z,963.6
2017-09-11T04:50:16.913Z,963.5
2017-09-11T04:51:18.981Z,963.5
2017-09-11T04:52:21.119Z,963.5
2017-09-11T04:53:23.257Z,963.5
2017-09-11T04:54:25.402Z,963.4
2017-09-11T04:55:27.880Z,963.5
2017-09-11T04:56:30.385Z,963.5
2017-09-11T04:57:32.644Z,963.5
2017-09-11T04:58:34.777Z,963.4
2017-09-11T04:59:36.905Z,963.5
2017-09-11T05:00:39.402Z,963.5
2017-09-11T05:01:41.573Z,963.4
2017-09-11T05:02:43.693Z,963.6
2017-09-11T05:03:45.763Z,963.5
2017-09-11T05:04:47.849Z,963.5
2017-09-11T05:05:52.097Z,963.5
2017-09-11T05:06:54.233Z,963.4
2017-09-11T05:07:56.347Z,963.5
2017-09-11T05:08:58.427Z,963.4
2017-09-11T05:10:00.681Z,963.4
2017-09-11T05:11:03.167Z,963.5
2017-09-11T05:12:05.268Z,963.5
2017-09-11T05:13:07.345Z,963.6
2017-09-11T05:14:09.403Z,963.5
2017-09-11T05:15:11.519Z,963.4
2017-09-11T05:16:14.057Z,963.4
2017-09-11T05:17:16.183Z,963.4
2017-09-11T05:18:18.270Z,963.4
2017-09-11T05:19:20.344Z,963.4
2017-09-11T05:20:22.444Z,963.5
2017-09-11T05:21:24.949Z,963.4
2017-09-11T05:22:27.064Z,963.4
2017-09-11T05:23:29.136Z,963.5
2017-09-11T05:24:31.223Z,963.6
2017-09-11T05:25:36.848Z,963.4
2017-09-11T05:26:39.296Z,963.4
2017-09-11T05:27:41.421Z,963.5
2017-09-11T05:28:44.038Z,963.4
2017-09-11T05:29:46.227Z,963.6
2017-09-11T05:30:48.635Z,963.5
2017-09-11T05:31:51.997Z,963.5
2017-09-11T05:32:54.119Z,963.4
2017-09-11T05:33:56.242Z,963.5
2017-09-11T05:34:58.309Z,963.5
2017-09-11T05:36:00.381Z,963.6
2017-09-11T05:37:02.917Z,963.6
2017-09-11T05:38:05.353Z,963.6
2017-09-11T05:39:07.409Z,963.6
2017-09-11T05:40:09.822Z,963.6
2017-09-11T05:41:11.972Z,963.5
2017-09-11T05:42:14.342Z,963.5
2017-09-11T05:43:16.887Z,963.7
2017-09-11T05:44:19.028Z,963.5
2017-09-11T05:45:21.156Z,963.8
2017-09-11T05:46:23.233Z,963.5
2017-09-11T05:47:25.642Z,963.6
2017-09-11T05:48:27.756Z,963.5
2017-09-11T05:49:29.827Z,963.6
2017-09-11T05:50:31.936Z,963.7
2017-09-11T05:51:34.204Z,963.7
2017-09-11T05:52:36.703Z,963.6
2017-09-11T05:53:39.063Z,963.6
2017-09-11T05:54:41.155Z,963.6
2017-09-11T05:55:43.253Z,963.6
2017-09-11T05:56:45.341Z,963.6
2017-09-11T05:57:47.766Z,963.5
2017-09-11T05:58:49.870Z,963.6
2017-09-11T05:59:51.950Z,963.6
2017-09-11T06:00:54.275Z,963.7
2017-09-11T06:01:56.395Z,963.7
2017-09-11T06:02:58.811Z,963.7
2017-09-11T06:04:01.143Z,963.6
2017-09-11T06:05:03.342Z,963.7
2017-09-11T06:06:05.402Z,963.8
2017-09-11T06:07:07.550Z,963.8
2017-09-11T06:08:10.058Z,963.7
2017-09-11T06:09:12.229Z,963.7
2017-09-11T06:10:14.319Z,963.7
2017-09-11T06:11:16.550Z,963.7
2017-09-11T06:12:20.924Z,963.6
2017-09-11T06:13:23.309Z,963.8
2017-09-11T06:14:25.586Z,963.8
2017-09-11T06:15:28.558Z,963.8
2017-09-11T06:16:30.868Z,963.7
2017-09-11T06:17:33.103Z,963.7
2017-09-11T06:18:35.717Z,963.8
2017-09-11T06:19:37.989Z,963.7
2017-09-11T06:20:40.220Z,963.6
2017-09-11T06:21:42.514Z,963.8
2017-09-11T06:22:44.800Z,963.6
2017-09-11T06:23:47.488Z,963.6
2017-09-11T06:24:52.821Z,963.6
2017-09-11T06:25:55.127Z,963.6
2017-09-11T06:26:57.893Z,963.6
2017-09-11T06:28:00.184Z,963.8
2017-09-11T06:29:02.634Z,963.6
2017-09-11T06:30:04.686Z,963.7
2017-09-11T06:31:06.850Z,963.7
2017-09-11T06:32:09.049Z,963.6
2017-09-11T06:33:11.411Z,963.5
2017-09-11T06:34:14.279Z,963.6
2017-09-11T06:35:19.541Z,963.6
2017-09-11T06:36:21.652Z,963.6
2017-09-11T06:37:23.705Z,963.7
2017-09-11T06:38:25.836Z,963.7
2017-09-11T06:39:28.224Z,963.6
2017-09-11T06:40:30.367Z,963.6
2017-09-11T06:41:32.419Z,963.5
2017-09-11T06:42:34.525Z,963.6
2017-09-11T06:43:36.613Z,963.9
2017-09-11T06:44:42.130Z,963.5
2017-09-11T06:45:44.197Z,963.6
2017-09-11T06:46:46.831Z,963.7
2017-09-11T06:47:48.932Z,963.7
2017-09-11T06:48:50.978Z,963.6
2017-09-11T06:49:53.516Z,963.5
2017-09-11T06:50:55.621Z,963.6
2017-09-11T06:51:57.738Z,963.6
2017-09-11T06:52:59.872Z,963.6
2017-09-11T06:54:01.941Z,963.6
2017-09-11T06:55:04.418Z,963.5
2017-09-11T06:56:06.566Z,963.7
2017-09-11T06:57:08.926Z,963.6
2017-09-11T06:58:11.031Z,963.7
2017-09-11T06:59:13.390Z,963.7
2017-09-11T07:00:15.735Z,963.7
2017-09-11T07:01:18.016Z,963.7
2017-09-11T07:02:20.145Z,963.7
2017-09-11T07:03:22.444Z,963.6
2017-09-11T07:04:26.312Z,963.8
2017-09-11T07:05:28.812Z,963.7
2017-09-11T07:06:30.939Z,963.7
2017-09-11T07:07:33.072Z,963.7
2017-09-11T07:08:35.189Z,963.7
2017-09-11T07:09:37.311Z,963.7
2017-09-11T07:10:40.237Z,963.7
2017-09-11T07:11:42.349Z,963.6
2017-09-11T07:12:44.421Z,963.7
2017-09-11T07:13:46.532Z,963.7
2017-09-11T07:14:48.656Z,963.7
2017-09-11T07:15:52.006Z,963.7
2017-09-11T07:16:54.129Z,963.8
2017-09-11T07:17:56.217Z,963.7
2017-09-11T07:18:58.329Z,963.8
2017-09-11T07:20:00.380Z,963.7
2017-09-11T07:21:02.754Z,963.8
2017-09-11T07:22:04.859Z,963.7
2017-09-11T07:23:07.028Z,963.9
2017-09-11T07:24:09.118Z,963.7
2017-09-11T07:25:11.246Z,963.7
2017-09-11T07:26:13.610Z,963.7
2017-09-11T07:27:15.733Z,963.7
2017-09-11T07:28:17.849Z,963.8
2017-09-11T07:29:19.950Z,963.8
2017-09-11T07:30:23.559Z,963.8
2017-09-11T07:31:25.907Z,963.8
2017-09-11T07:32:27.974Z,963.8
2017-09-11T07:33:30.769Z,963.8
2017-09-11T07:34:32.836Z,963.8
2017-09-11T07:35:35.288Z,963.9
2017-09-11T07:36:37.695Z,963.8
2017-09-11T07:37:39.793Z,963.8
2017-09-11T07:38:41.927Z,963.8
2017-09-11T07:39:43.965Z,964
2017-09-11T07:40:46.059Z,963.9
2017-09-11T07:41:48.552Z,963.9
2017-09-11T07:42:50.678Z,963.9
2017-09-11T07:43:52.781Z,963.8
2017-09-11T07:44:55.539Z,963.8
2017-09-11T07:45:57.683Z,963.8
2017-09-11T07:47:00.073Z,963.8
2017-09-11T07:48:02.148Z,963.9
2017-09-11T07:49:04.323Z,963.8
2017-09-11T07:50:06.551Z,963.8
2017-09-11T07:51:08.639Z,963.9
2017-09-11T07:52:11.068Z,963.9
2017-09-11T07:53:13.165Z,963.8
2017-09-11T07:54:15.264Z,963.9
2017-09-11T07:55:17.591Z,963.8
2017-09-11T07:56:19.833Z,963.9
2017-09-11T07:57:22.305Z,964
2017-09-11T07:58:24.374Z,963.9
2017-09-11T07:59:26.469Z,963.9
2017-09-11T08:00:28.587Z,963.9
2017-09-11T08:01:30.703Z,963.9
2017-09-11T08:02:33.390Z,964
2017-09-11T08:03:35.540Z,964.1
2017-09-11T08:04:37.614Z,964.1
2017-09-11T08:05:39.735Z,964.3
2017-09-11T08:06:41.857Z,964.1
2017-09-11T08:07:45.655Z,964
2017-09-11T08:08:47.777Z,964
2017-09-11T08:09:49.899Z,964
2017-09-11T08:10:52.066Z,964
2017-09-11T08:11:54.180Z,964
2017-09-11T08:12:56.580Z,964.1
2017-09-11T08:13:59.930Z,964.1
2017-09-11T08:15:02.069Z,963.9
2017-09-11T08:16:04.130Z,964
2017-09-11T08:17:06.256Z,963.9
2017-09-11T08:18:08.720Z,963.9
2017-09-11T08:19:10.829Z,963.9
2017-09-11T08:20:12.945Z,964
2017-09-11T08:21:15.029Z,964
2017-09-11T08:22:17.126Z,964
2017-09-11T08:23:19.532Z,964
2017-09-11T08:24:21.785Z,964
2017-09-11T08:25:24.132Z,963.9
2017-09-11T08:26:26.262Z,964.2
2017-09-11T08:27:28.336Z,964.1
2017-09-11T08:28:30.817Z,964
2017-09-11T08:29:32.903Z,963.9
2017-09-11T08:30:34.971Z,963.9
2017-09-11T08:31:37.107Z,963.9
2017-09-11T08:32:39.230Z,963.9
2017-09-11T08:33:41.721Z,963.9
2017-09-11T08:34:43.857Z,963.9
2017-09-11T08:35:45.933Z,963.9
2017-09-11T08:36:50.214Z,964.1
2017-09-11T08:37:52.426Z,963.9
2017-09-11T08:38:54.867Z,963.8
2017-09-11T08:39:56.994Z,963.9
2017-09-11T08:40:59.128Z,964
2017-09-11T08:42:01.210Z,964
2017-09-11T08:43:05.144Z,963.9
2017-09-11T08:44:07.605Z,964
2017-09-11T08:45:09.701Z,963.9
2017-09-11T08:46:11.801Z,963.9
2017-09-11T08:47:13.932Z,963.9
2017-09-11T08:48:16.008Z,964
2017-09-11T08:49:18.431Z,963.9
2017-09-11T08:50:20.576Z,963.9
2017-09-11T08:51:22.709Z,963.9
2017-09-11T08:52:24.833Z,964.1
2017-09-11T08:53:26.930Z,963.9
2017-09-11T08:54:29.446Z,963.8
2017-09-11T08:55:31.542Z,963.9
2017-09-11T08:56:33.650Z,963.9
2017-09-11T08:57:35.745Z,963.9
2017-09-11T08:58:37.807Z,963.9
2017-09-11T08:59:40.170Z,963.9
2017-09-11T09:00:42.239Z,963.8
2017-09-11T09:01:44.332Z,963.9
2017-09-11T09:02:46.491Z,963.8
2017-09-11T09:03:48.599Z,963.8
2017-09-11T09:04:51.006Z,963.9
2017-09-11T09:05:53.159Z,963.8
2017-09-11T09:06:55.249Z,963.9
2017-09-11T09:07:57.362Z,963.9
2017-09-11T09:08:59.784Z,963.9
2017-09-11T09:10:02.155Z,963.8
2017-09-11T09:11:04.358Z,964
2017-09-11T09:12:06.445Z,963.9
2017-09-11T09:13:08.498Z,963.8
2017-09-11T09:14:11.949Z,963.9
2017-09-11T09:15:14.445Z,963.8
2017-09-11T09:16:16.712Z,963.9
2017-09-11T09:17:18.916Z,963.8
2017-09-11T09:18:21.008Z,963.8
2017-09-11T09:19:23.063Z,963.9
2017-09-11T09:20:25.511Z,964
2017-09-11T09:21:27.739Z,963.9
2017-09-11T09:22:29.886Z,963.8
2017-09-11T09:23:32.494Z,963.9
2017-09-11T09:24:34.761Z,963.9
2017-09-11T09:25:37.214Z,963.9
2017-09-11T09:26:39.343Z,963.9
2017-09-11T09:27:41.423Z,963.8
2017-09-11T09:28:43.537Z,963.8
2017-09-11T09:29:45.657Z,963.8
2017-09-11T09:30:48.044Z,963.8
2017-09-11T09:31:50.195Z,963.8
2017-09-11T09:32:52.292Z,963.8
2017-09-11T09:33:54.382Z,963.8
2017-09-11T09:34:58.203Z,963.8
2017-09-11T09:36:00.622Z,963.8
2017-09-11T09:37:02.768Z,963.9
2017-09-11T09:38:04.966Z,963.8
2017-09-11T09:39:07.164Z,963.9
2017-09-11T09:40:09.282Z,963.9
2017-09-11T09:41:11.708Z,963.9
2017-09-11T09:42:13.842Z,963.9
2017-09-11T09:43:16.374Z,963.9
2017-09-11T09:44:18.483Z,963.9
2017-09-11T09:45:20.713Z,964
2017-09-11T09:46:23.725Z,963.8
2017-09-11T09:47:25.851Z,963.9
2017-09-11T09:48:28.010Z,963.9
2017-09-11T09:49:30.269Z,963.9
2017-09-11T09:50:32.557Z,964
2017-09-11T09:51:35.022Z,963.9
2017-09-11T09:52:37.264Z,963.9
2017-09-11T09:53:39.360Z,964
2017-09-11T09:54:41.787Z,964
2017-09-11T09:55:43.895Z,964
2017-09-11T09:56:46.329Z,964
2017-09-11T09:57:48.447Z,963.9
2017-09-11T09:58:50.578Z,963.9
2017-09-11T09:59:52.656Z,963.9
2017-09-11T10:00:55.219Z,964.1
2017-09-11T10:01:57.683Z,964
2017-09-11T10:02:59.934Z,964
2017-09-11T10:04:02.003Z,964
2017-09-11T10:05:04.146Z,964
2017-09-11T10:06:06.366Z,964
2017-09-11T10:07:08.758Z,964
2017-09-11T10:08:10.849Z,964
2017-09-11T10:09:13.019Z,964.1
2017-09-11T10:10:15.192Z,964
2017-09-11T10:11:17.266Z,964
2017-09-11T10:12:20.761Z,964.1
2017-09-11T10:13:22.876Z,964.1
2017-09-11T10:14:25.013Z,964.1
2017-09-11T10:15:27.149Z,964.1
2017-09-11T10:16:29.517Z,964.1
2017-09-11T10:17:31.991Z,964
2017-09-11T10:18:34.106Z,964.1
2017-09-11T10:19:36.252Z,964.2
2017-09-11T10:20:41.077Z,964.1
2017-09-11T10:21:43.254Z,964.1
2017-09-11T10:22:45.840Z,964
2017-09-11T10:23:48.037Z,964
2017-09-11T10:24:50.257Z,964
2017-09-11T10:25:52.479Z,964.1
2017-09-11T10:26:54.987Z,964
2017-09-11T10:27:57.529Z,964
2017-09-11T10:28:59.739Z,964.1
2017-09-11T10:30:01.902Z,964.1
2017-09-11T10:31:04.000Z,964.1
2017-09-11T10:32:06.151Z,963.9
2017-09-11T10:33:08.662Z,963.9
2017-09-11T10:34:10.831Z,964
2017-09-11T10:35:12.962Z,964
2017-09-11T10:36:15.116Z,964
2017-09-11T10:37:17.223Z,964.1
2017-09-11T10:38:19.721Z,964.1
2017-09-11T10:39:21.975Z,964.3
2017-09-11T10:40:24.181Z,964.2
2017-09-11T10:41:27.472Z,964.3
2017-09-11T10:42:29.615Z,964.3
2017-09-11T10:43:32.131Z,964.3
2017-09-11T10:44:34.247Z,964.1
2017-09-11T10:45:36.333Z,964.3
2017-09-11T10:46:38.448Z,964.3
2017-09-11T10:47:40.614Z,964.4
2017-09-11T10:48:43.239Z,964.4
2017-09-11T10:49:47.608Z,964.3
2017-09-11T10:50:49.744Z,964.3
2017-09-11T10:51:51.955Z,964.3
2017-09-11T10:52:54.204Z,964.3
2017-09-11T10:53:56.746Z,964.2
2017-09-11T10:54:58.919Z,964.4
2017-09-11T10:56:02.258Z,964.3
2017-09-11T10:57:04.421Z,964.4
2017-09-11T10:58:06.526Z,964.3
2017-09-11T10:59:09.979Z,964.3
2017-09-11T11:00:12.089Z,964.5
2017-09-11T11:01:14.183Z,964.4
2017-09-11T11:02:16.379Z,964.4
2017-09-11T11:03:18.590Z,964.4
2017-09-11T11:04:20.992Z,964.4
2017-09-11T11:05:23.114Z,964.5
2017-09-11T11:06:25.264Z,964.5
2017-09-11T11:07:27.430Z,964.6
2017-09-11T11:08:29.593Z,964.6
2017-09-11T11:09:32.112Z,964.5
2017-09-11T11:10:36.654Z,964.6
2017-09-11T11:11:38.773Z,964.6
2017-09-11T11:12:41.959Z,964.6
2017-09-11T11:13:44.136Z,964.6
2017-09-11T11:14:46.662Z,964.5
2017-09-11T11:15:48.868Z,964.6
2017-09-11T11:16:51.139Z,964.6
2017-09-11T11:17:53.310Z,964.7
2017-09-11T11:18:56.148Z,964.6
2017-09-11T11:19:58.614Z,964.6
2017-09-11T11:21:00.728Z,964.6
2017-09-11T11:22:02.855Z,964.7
2017-09-11T11:23:04.948Z,964.7
2017-09-11T11:24:07.176Z,964.7
2017-09-11T11:25:09.636Z,964.7
2017-09-11T11:26:11.909Z,964.6
2017-09-11T11:27:14.102Z,964.6
2017-09-11T11:28:16.429Z,964.7
2017-09-11T11:29:18.790Z,964.7
2017-09-11T11:30:21.326Z,964.7
2017-09-11T11:31:23.486Z,964.7
2017-09-11T11:32:25.777Z,964.6
2017-09-11T11:33:27.942Z,964.6
2017-09-11T11:34:30.082Z,964.7
2017-09-11T11:35:32.532Z,964.7
2017-09-11T11:36:35.068Z,964.6
2017-09-11T11:37:37.234Z,964.7
2017-09-11T11:38:39.709Z,964.6
2017-09-11T11:39:41.826Z,964.7
2017-09-11T11:40:44.300Z,964.6
2017-09-11T11:41:47.682Z,964.7
2017-09-11T11:42:49.870Z,964.7
2017-09-11T11:43:52.003Z,964.7
2017-09-11T11:44:54.388Z,964.7
2017-09-11T11:45:56.952Z,964.7
2017-09-11T11:46:59.079Z,964.7
2017-09-11T11:48:01.169Z,964.8
2017-09-11T11:49:03.279Z,964.8
2017-09-11T11:50:05.406Z,964.9
2017-09-11T11:51:08.697Z,964.9
2017-09-11T11:52:10.881Z,964.8
2017-09-11T11:53:13.027Z,964.8
2017-09-11T11:54:15.167Z,964.8
2017-09-11T11:55:17.366Z,964.7
2017-09-11T11:56:19.723Z,964.9
2017-09-11T11:57:21.951Z,964.9
2017-09-11T11:58:24.067Z,964.7
2017-09-11T11:59:26.190Z,964.7
2017-09-11T12:00:28.446Z,964.8
2017-09-11T12:01:30.822Z,964.8
2017-09-11T12:02:34.202Z,964.8
2017-09-11T12:03:36.277Z,964.7
2017-09-11T12:04:38.409Z,964.8
2017-09-11T12:05:40.465Z,964.8
2017-09-11T12:06:42.969Z,964.7
2017-09-11T12:07:45.137Z,964.7
2017-09-11T12:08:47.309Z,964.8
2017-09-11T12:09:49.440Z,964.8
2017-09-11T12:10:52.120Z,964.7
2017-09-11T12:11:54.484Z,964.8
2017-09-11T12:12:56.563Z,964.7
2017-09-11T12:13:58.653Z,964.8
2017-09-11T12:15:00.770Z,964.7
2017-09-11T12:16:02.921Z,964.7
2017-09-11T12:17:04.996Z,964.7
2017-09-11T12:18:07.069Z,964.6
2017-09-11T12:19:10.662Z,964.7
2017-09-11T12:20:12.782Z,964.6
2017-09-11T12:21:14.907Z,964.7
2017-09-11T12:22:17.132Z,964.6
2017-09-11T12:23:19.250Z,964.6
2017-09-11T12:24:21.335Z,964.6
2017-09-11T12:25:23.412Z,964.5
2017-09-11T12:26:25.509Z,964.5
2017-09-11T12:27:27.942Z,964.5
2017-09-11T12:28:30.066Z,964.3
2017-09-11T12:29:32.223Z,964.5
2017-09-11T12:30:34.372Z,964.7
2017-09-11T12:31:36.501Z,964.6
2017-09-11T12:32:38.904Z,964.6
2017-09-11T12:33:43.211Z,964.7
2017-09-11T12:34:45.313Z,964.6
2017-09-11T12:35:47.448Z,964.6
2017-09-11T12:36:49.595Z,964.7
2017-09-11T12:37:52.030Z,964.6
2017-09-11T12:38:54.153Z,964.6
2017-09-11T12:39:56.258Z,964.5
2017-09-11T12:40:58.458Z,964.5
2017-09-11T12:42:00.583Z,964.5
2017-09-11T12:43:04.565Z,964.6
2017-09-11T12:44:06.662Z,964.5
2017-09-11T12:45:08.763Z,964.7
2017-09-11T12:46:11.086Z,964.6
2017-09-11T12:47:13.258Z,964.7
2017-09-11T12:48:15.608Z,964.6
2017-09-11T12:49:17.711Z,964.7
2017-09-11T12:50:19.865Z,964.8
2017-09-11T12:51:21.986Z,964.7
2017-09-11T12:52:24.093Z,964.7
2017-09-11T12:53:26.549Z,964.7
2017-09-11T12:54:34.511Z,964.6
2017-09-11T12:55:40.479Z,964.6
2017-09-11T12:56:46.442Z,964.4
2017-09-11T12:57:48.625Z,964.5
2017-09-11T12:58:51.050Z,964.6
2017-09-11T12:59:53.137Z,964.5
2017-09-11T13:00:58.955Z,964.4
2017-09-11T13:02:01.055Z,964.4
2017-09-11T13:03:03.222Z,964.3
2017-09-11T13:04:05.664Z,964.4
2017-09-11T13:05:07.833Z,964.5
2017-09-11T13:06:09.956Z,964.5
2017-09-11T13:07:12.058Z,964.2
2017-09-11T13:08:14.162Z,964.3
2017-09-11T13:09:16.865Z,964.4
2017-09-11T13:10:18.993Z,964.4
2017-09-11T13:11:21.177Z,964.3
2017-09-11T13:12:23.308Z,964.4
2017-09-11T13:13:25.398Z,964.4
2017-09-11T13:14:27.814Z,964.4
2017-09-11T13:15:32.837Z,964.4
2017-09-11T13:16:34.971Z,964.4
2017-09-11T13:17:37.087Z,964.3
2017-09-11T13:18:39.213Z,964.2
2017-09-11T13:19:41.577Z,964.2
2017-09-11T13:20:43.735Z,964.2
2017-09-11T13:21:45.837Z,964.3
2017-09-11T13:22:47.933Z,964.1
2017-09-11T13:23:50.120Z,964.3
2017-09-11T13:24:52.568Z,964.3
2017-09-11T13:25:54.783Z,964.3
2017-09-11T13:26:57.631Z,964.2
2017-09-11T13:27:59.835Z,964.2